createdAt,value
2018-10-17T00:00:05.404Z,42.43
2018-10-17T00:05:03.901Z,46.03
2018-10-17T00:10:02.261Z,44.23
2018-10-17T00:15:00.749Z,46.27
2018-10-17T00:19:59.117Z,42.77
2018-10-17T00:24:57.593Z,46.73
2018-10-17T00:29:56.064Z,47.27
2018-10-17T00:34:54.572Z,50.57
2018-10-17T00:39:52.913Z,43.23
2018-10-17T00:44:51.325Z,44.63
2018-10-17T00:49:49.692Z,48.30
2018-10-17T00:54:48.157Z,45.80
2018-10-17T00:59:46.544Z,47.00
2018-10-17T01:04:45.023Z,44.20
2018-10-17T01:09:43.410Z,48.13
2018-10-17T01:14:41.802Z,50.13
2018-10-17T01:19:40.175Z,45.73
2018-10-17T01:24:38.629Z,44.47
2018-10-17T01:29:37.141Z,48.27
2018-10-17T01:34:35.660Z,48.30
2018-10-17T01:39:34.009Z,43.20
2018-10-17T01:44:32.501Z,50.23
2018-10-17T01:49:30.936Z,49.17
2018-10-17T01:54:29.410Z,44.97
2018-10-17T01:59:27.791Z,53.77
2018-10-17T02:04:26.197Z,45.57
2018-10-17T02:09:24.695Z,46.53
2018-10-17T02:14:23.242Z,50.70
2018-10-17T02:19:21.636Z,57.17
2018-10-17T02:24:20.088Z,57.33
2018-10-17T02:29:18.441Z,51.30
2018-10-17T02:34:16.876Z,52.07
2018-10-17T02:39:15.270Z,60.90
2018-10-17T02:44:13.646Z,58.80
2018-10-17T02:49:12.149Z,81.40
2018-10-17T02:54:10.419Z,77.93
2018-10-17T02:59:08.869Z,68.43
2018-10-17T03:04:07.270Z,72.50
2018-10-17T03:09:06.801Z,81.83
2018-10-17T03:14:05.278Z,70.77
2018-10-17T03:19:03.952Z,73.20
2018-10-17T03:24:02.274Z,71.63
2018-10-17T03:29:00.682Z,72.33
2018-10-17T03:33:59.030Z,87.43
2018-10-17T03:38:57.425Z,104.90
2018-10-17T03:43:55.817Z,85.63
2018-10-17T03:48:54.224Z,102.97
2018-10-17T03:53:57.772Z,82.50
2018-10-17T03:58:56.183Z,83.97
2018-10-17T04:03:54.556Z,121.97
2018-10-17T04:08:53.090Z,100.20
2018-10-17T04:13:51.484Z,115.20
2018-10-17T04:18:50.046Z,139.40
2018-10-17T04:23:48.435Z,122.93
2018-10-17T04:28:46.863Z,113.50
2018-10-17T04:33:45.250Z,109.27
2018-10-17T04:38:43.712Z,100.90
2018-10-17T04:43:42.105Z,98.93
2018-10-17T04:48:40.690Z,79.10
2018-10-17T04:53:39.089Z,77.23
2018-10-17T04:58:37.541Z,73.67
2018-10-17T05:03:35.929Z,79.30
2018-10-17T05:08:34.301Z,79.57
2018-10-17T05:13:32.665Z,68.13
2018-10-17T05:18:31.138Z,68.20
2018-10-17T05:23:29.556Z,64.40
2018-10-17T05:28:28.240Z,78.37
2018-10-17T05:33:26.680Z,74.67
2018-10-17T05:38:25.169Z,72.03
2018-10-17T05:43:23.574Z,72.93
2018-10-17T05:48:22.057Z,72.60
2018-10-17T05:53:20.447Z,74.47
2018-10-17T05:58:18.949Z,74.37
2018-10-17T06:03:17.494Z,62.43
2018-10-17T06:08:15.959Z,69.47
2018-10-17T06:13:14.394Z,76.33
2018-10-17T06:18:12.816Z,79.17
2018-10-17T06:23:11.261Z,65.67
2018-10-17T06:28:09.875Z,71.00
2018-10-17T06:33:08.429Z,84.73
2018-10-17T06:38:06.829Z,80.00
2018-10-17T06:43:05.339Z,63.13
2018-10-17T06:48:04.484Z,53.83
2018-10-17T06:53:02.932Z,62.40
2018-10-17T06:58:01.516Z,52.40
2018-10-17T07:02:59.918Z,44.03
2018-10-17T07:09:43.935Z,44.07
2018-10-17T07:14:42.383Z,37.37
2018-10-17T07:19:40.758Z,34.97
2018-10-17T07:24:39.198Z,25.07
2018-10-17T07:29:37.746Z,26.17
2018-10-17T07:34:35.965Z,29.80
2018-10-17T07:39:34.365Z,27.00
2018-10-17T07:44:32.788Z,22.93
2018-10-17T07:49:31.247Z,22.87
2018-10-17T07:54:29.726Z,24.33
2018-10-17T07:59:28.130Z,22.50
2018-10-17T08:04:26.585Z,23.00
2018-10-17T08:09:24.978Z,22.77
2018-10-17T08:14:23.437Z,24.93
2018-10-17T08:19:21.781Z,21.70
2018-10-17T08:24:20.243Z,12.23
2018-10-17T08:29:18.601Z,8.73
2018-10-17T08:34:17.038Z,10.10
2018-10-17T08:39:15.389Z,7.83
2018-10-17T08:44:13.812Z,8.23
2018-10-17T08:49:12.160Z,10.10
2018-10-17T08:54:10.707Z,6.40
2018-10-17T08:59:09.033Z,7.53
2018-10-17T09:04:07.658Z,7.60
2018-10-17T09:09:08.754Z,3.67
2018-10-17T09:14:07.265Z,4.43
2018-10-17T09:19:05.820Z,6.97
2018-10-17T09:24:04.474Z,8.10
2018-10-17T09:29:02.814Z,6.40
2018-10-17T09:34:01.189Z,4.33
2018-10-17T09:38:59.524Z,4.93
2018-10-17T09:43:57.898Z,7.27
2018-10-17T09:48:56.373Z,7.10
2018-10-17T09:53:54.807Z,5.23
2018-10-17T09:58:53.713Z,5.77
2018-10-17T10:03:52.150Z,8.17
2018-10-17T10:08:50.608Z,6.17
2018-10-17T10:13:49.002Z,5.90
2018-10-17T10:18:47.554Z,6.37
2018-10-17T10:23:46.096Z,4.77
2018-10-17T10:28:44.498Z,9.33
2018-10-17T10:33:42.815Z,6.97
2018-10-17T10:38:41.285Z,6.90
2018-10-17T10:43:39.674Z,7.40
2018-10-17T10:48:38.411Z,7.67
2018-10-17T10:53:36.869Z,5.73
2018-10-17T10:58:35.529Z,8.40
2018-10-17T11:03:33.672Z,5.20
2018-10-17T11:08:32.176Z,4.23
2018-10-17T11:13:30.556Z,6.17
2018-10-17T11:18:29.062Z,4.83
2018-10-17T11:23:27.470Z,3.33
2018-10-17T11:28:25.941Z,4.17
2018-10-17T11:33:24.307Z,7.80
2018-10-17T11:38:22.779Z,2.23
2018-10-17T11:43:21.127Z,4.47
2018-10-17T11:48:19.523Z,5.50
2018-10-17T11:53:18.016Z,4.43
2018-10-17T11:58:16.318Z,8.73
2018-10-17T12:03:14.788Z,5.57
2018-10-17T12:08:13.119Z,9.17
2018-10-17T12:13:11.488Z,8.37
2018-10-17T12:18:10.164Z,7.90
2018-10-17T12:23:08.524Z,7.47
2018-10-17T12:28:07.067Z,5.87
2018-10-17T12:33:05.431Z,8.73
2018-10-17T12:38:03.799Z,6.07
2018-10-17T12:43:02.363Z,4.13
2018-10-17T12:48:00.792Z,3.77
2018-10-17T12:52:59.454Z,5.63
2018-10-17T12:57:57.822Z,8.20
2018-10-17T13:02:56.185Z,3.57
2018-10-17T13:07:54.541Z,7.83
2018-10-17T13:12:52.939Z,5.23
2018-10-17T13:17:51.282Z,3.23
2018-10-17T13:22:49.634Z,7.00
2018-10-17T13:27:48.077Z,5.83
2018-10-17T13:32:46.449Z,3.90
2018-10-17T13:37:44.881Z,3.80
2018-10-17T13:42:43.349Z,4.10
2018-10-17T13:47:41.757Z,6.23
2018-10-17T13:52:40.157Z,3.47
2018-10-17T13:57:38.595Z,3.50
2018-10-17T14:02:37.019Z,4.63
2018-10-17T14:07:35.473Z,4.67
2018-10-17T14:12:34.350Z,6.33
2018-10-17T14:17:32.845Z,5.27
2018-10-17T14:22:31.189Z,3.23
2018-10-17T14:27:29.705Z,2.47
2018-10-17T14:32:28.071Z,3.80
2018-10-17T14:37:26.558Z,5.50
2018-10-17T14:42:24.955Z,3.10
2018-10-17T14:47:28.386Z,6.63
2018-10-17T14:52:26.749Z,3.27
2018-10-17T14:57:25.167Z,5.97
2018-10-17T15:02:23.607Z,6.37
2018-10-17T15:07:21.975Z,9.80
2018-10-17T15:12:20.340Z,6.43
2018-10-17T15:17:19.084Z,4.17
2018-10-17T15:22:17.458Z,4.57
2018-10-17T15:27:16.971Z,3.03
2018-10-17T15:33:02.340Z,5.03
2018-10-17T15:38:00.666Z,7.43
2018-10-17T15:42:59.120Z,5.57
2018-10-17T15:47:57.487Z,3.97
2018-10-17T15:52:55.874Z,4.70
2018-10-17T15:57:54.241Z,4.77
2018-10-17T16:02:52.607Z,7.00
2018-10-17T16:07:51.055Z,6.90
2018-10-17T16:12:49.470Z,6.87
2018-10-17T16:17:47.898Z,8.67
2018-10-17T16:22:46.440Z,9.53
2018-10-17T16:27:44.760Z,11.03
2018-10-17T16:32:43.121Z,7.40
2018-10-17T16:37:41.499Z,9.90
2018-10-17T16:42:40.266Z,6.20
2018-10-17T16:47:38.762Z,8.07
2018-10-17T16:52:37.164Z,10.57
2018-10-17T16:57:35.804Z,7.83
2018-10-17T17:02:34.188Z,9.13
2018-10-17T17:07:32.626Z,9.23
2018-10-17T17:12:30.994Z,7.13
2018-10-17T17:17:29.378Z,9.63
2018-10-17T17:22:27.871Z,10.27
2018-10-17T17:27:26.378Z,11.17
2018-10-17T17:32:24.769Z,17.30
2018-10-17T17:37:23.207Z,19.07
2018-10-17T17:42:21.570Z,15.63
2018-10-17T17:47:19.989Z,11.93
2018-10-17T17:52:18.523Z,13.57
2018-10-17T17:57:17.006Z,15.77
2018-10-17T18:02:15.386Z,21.10
2018-10-17T18:07:13.831Z,21.40
2018-10-17T18:12:12.191Z,18.90
2018-10-17T18:17:10.603Z,16.77
2018-10-17T18:22:08.987Z,16.67
2018-10-17T18:27:07.739Z,19.47
2018-10-17T18:32:06.124Z,19.77
2018-10-17T18:37:04.581Z,17.98
2018-10-17T18:49:25.346Z,17.30
2018-10-17T18:54:23.766Z,16.27
2018-10-17T18:59:22.161Z,14.07
2018-10-17T19:04:20.666Z,17.77
2018-10-17T19:09:19.030Z,17.63
2018-10-17T19:14:17.438Z,19.30
2018-10-17T19:19:15.824Z,17.40
2018-10-17T19:24:14.207Z,20.40
2018-10-17T19:29:13.092Z,19.23
2018-10-17T19:34:11.453Z,15.20
2018-10-17T19:39:11.458Z,19.50
2018-10-17T19:44:09.826Z,15.57
2018-10-17T19:49:08.282Z,13.10
2018-10-17T19:54:07.003Z,12.00
2018-10-17T19:59:05.473Z,11.30
2018-10-17T20:04:04.397Z,11.87
2018-10-17T20:09:04.845Z,12.40
2018-10-17T20:14:03.797Z,10.73
2018-10-17T20:19:02.224Z,11.37
2018-10-17T20:24:00.967Z,19.77
2018-10-17T20:28:59.437Z,8.97
2018-10-17T20:33:57.806Z,11.33
2018-10-17T20:38:56.328Z,11.10
2018-10-17T20:43:54.737Z,9.60
2018-10-17T20:48:53.243Z,8.43
2018-10-17T20:53:51.604Z,7.93
2018-10-17T20:58:50.056Z,11.73
2018-10-17T21:03:48.437Z,10.93
2018-10-17T21:08:46.951Z,10.27
2018-10-17T21:13:45.336Z,13.97
2018-10-17T21:18:43.837Z,9.73
2018-10-17T21:23:42.231Z,8.40
2018-10-17T21:28:40.774Z,12.83
2018-10-17T21:33:39.138Z,10.43
2018-10-17T21:38:37.880Z,11.20
2018-10-17T21:43:36.218Z,9.80
2018-10-17T21:48:34.688Z,10.00
2018-10-17T21:53:33.053Z,10.43
2018-10-17T21:58:31.521Z,12.40
2018-10-17T22:03:30.004Z,9.90
2018-10-17T22:08:28.506Z,7.10
2018-10-17T22:13:26.906Z,11.37
2018-10-17T22:18:25.369Z,8.57
2018-10-17T22:23:23.750Z,10.87
2018-10-17T22:28:22.196Z,9.40
2018-10-17T22:33:20.594Z,8.23
2018-10-17T22:38:19.094Z,11.60
2018-10-17T22:43:17.497Z,9.97
2018-10-17T22:53:40.793Z,11.47
2018-10-17T22:58:39.174Z,12.20
2018-10-17T23:03:37.600Z,10.03
2018-10-17T23:08:36.094Z,7.40
2018-10-17T23:13:34.444Z,6.63
2018-10-17T23:18:32.895Z,7.70
2018-10-17T23:23:31.346Z,7.33
2018-10-17T23:28:29.799Z,9.60
2018-10-17T23:33:28.181Z,7.20
2018-10-17T23:38:26.689Z,10.37
2018-10-17T23:43:25.032Z,10.67
2018-10-17T23:48:23.488Z,8.83
2018-10-17T23:53:21.846Z,9.03
2018-10-17T23:58:20.267Z,12.80
